Time;durP1;ratioP1;P1;durP2;ratioP2;P2;SDS_P1;SDS_P2;PMS_P1;PMS_P2;Temp;Humidity;BMP_temperature;BMP_pressure;BME280_temperature;BME280_humidity;BME280_pressure;Samples;Min_cycle;Max_cycle;Signal;HPM_P1;HPM_P2
2022/10/29 00:00:48;;;;;;;38.97;32.20;;;;;22.00;101057.00;;;;2079038;28;20278;-57
2022/10/29 00:01:49;;;;;;;37.75;30.88;;;;;22.00;101048.00;;;;2059136;28;20301;-57
2022/10/29 00:02:49;;;;;;;38.10;30.90;;;;;22.00;101049.00;;;;2066521;28;20705;-57
2022/10/29 00:03:49;;;;;;;39.33;33.30;;;;;22.00;101054.00;;;;2078430;28;20697;-57
2022/10/29 00:04:50;;;;;;;38.73;32.90;;;;;22.00;100954.00;;;;2079082;28;20694;-56
2022/10/29 00:05:55;;;;;;;36.47;30.00;;;;;22.00;101050.00;;;;2075389;28;20744;-54
2022/10/29 00:06:55;;;;;;;34.20;29.42;;;;;21.90;101049.00;;;;2076207;28;20214;-57
2022/10/29 00:07:55;;;;;;;35.60;30.13;;;;;22.00;101057.00;;;;2079304;28;20233;-56
2022/10/29 00:08:56;;;;;;;37.33;30.30;;;;;22.00;101060.00;;;;2079207;28;20206;-56
2022/10/29 00:09:56;;;;;;;33.93;29.30;;;;;22.00;101055.00;;;;2078315;28;20428;-57
2022/10/29 00:11:05;;;;;;;38.37;31.60;;;;;22.00;101061.00;;;;2078111;28;20271;-57
2022/10/29 00:12:05;;;;;;;32.75;27.08;;;;;22.00;101068.00;;;;2077755;28;20685;-55
2022/10/29 00:13:06;;;;;;;36.80;29.80;;;;;22.00;101053.00;;;;2078729;28;20293;-57
2022/10/29 00:14:06;;;;;;;32.63;28.87;;;;;22.00;101059.00;;;;2078555;28;20217;-55
2022/10/29 00:15:07;;;;;;;35.60;30.30;;;;;22.00;101059.00;;;;2078834;28;20220;-57
2022/10/29 00:16:14;;;;;;;33.77;28.00;;;;;22.00;101047.00;;;;2075722;28;20222;-56
2022/10/29 00:17:15;;;;;;;36.63;28.80;;;;;22.00;101045.00;;;;2075085;28;20956;-57
2022/10/29 00:18:15;;;;;;;36.43;29.43;;;;;22.00;101055.00;;;;2078611;28;20205;-56
2022/10/29 00:19:15;;;;;;;31.40;27.10;;;;;22.00;101052.00;;;;2077915;28;20221;-56
2022/10/29 00:20:19;;;;;;;31.43;28.00;;;;;22.00;101052.00;;;;2077929;28;20229;-56
2022/10/29 00:21:21;;;;;;;31.92;27.92;;;;;21.90;101049.00;;;;2065430;28;20248;-57
2022/10/29 00:22:22;;;;;;;31.38;27.98;;;;;21.70;101062.00;;;;2069983;28;20241;-55
2022/10/29 00:23:22;;;;;;;34.40;27.00;;;;;21.90;101046.00;;;;2071176;28;20217;-57
2022/10/29 00:24:22;;;;;;;30.30;26.10;;;;;21.90;101042.00;;;;2070952;28;20566;-57
2022/10/29 00:25:23;;;;;;;34.60;27.30;;;;;21.90;101051.00;;;;2071085;28;20213;-57
2022/10/29 00:26:23;;;;;;;34.00;28.00;;;;;21.90;101049.00;;;;2071128;28;20210;-56
2022/10/29 00:27:24;;;;;;;31.47;27.80;;;;;21.90;101053.00;;;;2071197;28;20784;-55
2022/10/29 00:28:24;;;;;;;30.80;25.90;;;;;21.90;101047.00;;;;2071139;28;20619;-55
2022/10/29 00:29:25;;;;;;;34.50;26.90;;;;;21.90;101059.00;;;;2065050;28;20218;-55
2022/10/29 00:30:25;;;;;;;31.70;27.53;;;;;22.00;101051.00;;;;2070416;28;20587;-56
2022/10/29 00:31:25;;;;;;;31.70;26.20;;;;;21.90;101056.00;;;;2071431;28;20584;-57
2022/10/29 00:32:26;;;;;;;33.97;28.27;;;;;22.00;101056.00;;;;2069432;28;20617;-56
2022/10/29 00:33:26;;;;;;;31.07;27.10;;;;;21.90;101056.00;;;;2074833;28;20213;-56
2022/10/29 00:34:26;;;;;;;28.50;25.50;;;;;21.90;101053.00;;;;2077903;28;20213;-57
2022/10/29 00:35:27;;;;;;;30.83;26.37;;;;;21.90;101060.00;;;;2078919;28;20222;-57
2022/10/29 00:36:28;;;;;;;31.33;26.97;;;;;21.90;101056.00;;;;2079232;28;20247;-57
2022/10/29 00:37:28;;;;;;;31.88;25.95;;;;;22.00;101060.00;;;;2077638;28;20256;-58
2022/10/29 00:38:32;;;;;;;34.10;27.40;;;;;21.90;101065.00;;;;2079319;28;20253;-55
2022/10/29 00:39:33;;;;;;;33.28;27.67;;;;;21.90;101058.00;;;;2076285;28;20689;-57
2022/10/29 00:40:36;;;;;;;32.13;26.80;;;;;21.90;101064.00;;;;2078337;28;20304;-57
2022/10/29 00:41:37;;;;;;;28.38;24.92;;;;;21.90;101064.00;;;;2064746;28;20459;-58
2022/10/29 00:42:37;;;;;;;32.47;26.70;;;;;21.90;101063.00;;;;2077560;28;20209;-57
2022/10/29 00:43:40;;;;;;;29.80;25.90;;;;;21.90;101035.00;;;;2076551;28;20244;-57
2022/10/29 00:44:40;;;;;;;32.15;26.02;;;;;21.90;101058.00;;;;2070669;28;20210;-55
2022/10/29 00:45:43;;;;;;;28.30;24.97;;;;;21.90;101061.00;;;;2078363;28;20241;-56
2022/10/29 00:46:50;;;;;;;26.85;23.83;;;;;21.90;101080.00;;;;2078561;28;20704;-57
2022/10/29 00:47:51;;;;;;;30.33;24.67;;;;;21.90;101061.00;;;;2078077;28;20221;-57
2022/10/29 00:48:51;;;;;;;31.70;25.47;;;;;21.90;101055.00;;;;2069854;28;20749;-56
2022/10/29 00:49:58;;;;;;;32.53;24.73;;;;;21.90;101057.00;;;;2070153;28;20214;-57
2022/10/29 00:50:59;;;;;;;28.15;24.63;;;;;21.90;101060.00;;;;2070817;28;20235;-56
2022/10/29 00:52:01;;;;;;;28.63;24.13;;;;;21.90;101058.00;;;;2069395;28;20218;-57
2022/10/29 00:53:01;;;;;;;26.65;23.45;;;;;21.90;101061.00;;;;2076844;28;20218;-56
2022/10/29 00:54:05;;;;;;;26.90;23.57;;;;;21.90;101063.00;;;;2078400;28;20210;-55
2022/10/29 00:55:06;;;;;;;27.98;23.08;;;;;21.90;101064.00;;;;2078309;28;20217;-56
2022/10/29 00:56:06;;;;;;;29.60;23.42;;;;;21.90;101061.00;;;;2078199;28;20205;-57
2022/10/29 00:57:11;;;;;;;27.30;23.10;;;;;21.90;101059.00;;;;2077833;28;20209;-57
2022/10/29 00:58:12;;;;;;;28.08;23.90;;;;;21.90;101076.00;;;;2070815;28;20245;-57
2022/10/29 00:59:14;;;;;;;26.90;23.37;;;;;21.90;101036.00;;;;2070188;28;20593;-58
2022/10/29 01:00:15;;;;;;;26.38;22.63;;;;;21.90;101053.00;;;;2069910;28;20412;-57
2022/10/29 01:01:16;;;;;;;26.27;22.23;;;;;21.90;101061.00;;;;2062230;28;20225;-55
2022/10/29 01:02:16;;;;;;;26.77;22.90;;;;;21.90;101038.00;;;;2061025;28;20214;-57
2022/10/29 01:03:16;;;;;;;25.30;22.43;;;;;21.90;101058.00;;;;2061575;28;20225;-57
2022/10/29 01:04:17;;;;;;;26.57;22.33;;;;;21.90;101053.00;;;;2062126;28;20274;-56
2022/10/29 01:05:22;;;;;;;26.80;23.10;;;;;21.90;101054.00;;;;2062214;28;20240;-57
2022/10/29 01:06:22;;;;;;;27.77;22.27;;;;;21.90;101049.00;;;;2059622;28;20277;-56
2022/10/29 01:07:22;;;;;;;24.67;21.37;;;;;21.90;101036.00;;;;2070133;28;20773;-57
2022/10/29 01:08:23;;;;;;;27.97;23.30;;;;;21.80;101042.00;;;;2069900;28;20741;-58
2022/10/29 01:09:23;;;;;;;26.63;21.33;;;;;21.90;101039.00;;;;2069985;28;20682;-58
2022/10/29 01:10:33;;;;;;;27.60;23.27;;;;;21.90;101041.00;;;;2078785;28;20634;-58
2022/10/29 01:11:48;;;;;;;29.20;22.33;;;;;21.80;101039.00;;;;2078191;28;20757;-57
2022/10/29 01:13:08;;;;;;;24.65;22.05;;;;;21.90;101039.00;;;;2076517;28;20708;-58
2022/10/29 01:14:17;;;;;;;25.88;21.42;;;;;21.90;101035.00;;;;2069648;28;20249;-57
2022/10/29 01:15:39;;;;;;;24.05;19.92;;;;;21.90;101046.00;;;;2071625;28;20301;-57
2022/10/29 01:16:49;;;;;;;23.88;19.80;;;;;21.90;101045.00;;;;2070764;28;20558;-57
2022/10/29 01:18:10;;;;;;;23.48;20.92;;;;;21.80;101027.00;;;;2070306;28;20221;-58
2022/10/29 01:19:26;;;;;;;25.95;20.95;;;;;21.90;101039.00;;;;2076046;28;20889;-57
2022/10/29 01:20:49;;;;;;;23.48;19.67;;;;;21.80;101036.00;;;;2067635;28;20634;-58
2022/10/29 01:22:00;;;;;;;24.30;20.05;;;;;21.80;101019.00;;;;2077309;28;20217;-58
2022/10/29 01:23:26;;;;;;;22.08;19.30;;;;;21.80;101040.00;;;;2077693;28;20205;-57
2022/10/29 01:24:32;;;;;;;22.67;18.75;;;;;21.90;101046.00;;;;2069250;28;20591;-58
2022/10/29 01:25:35;;;;;;;25.90;20.50;;;;;21.80;101068.00;;;;2073301;28;20320;-57
2022/10/29 01:26:57;;;;;;;22.27;19.75;;;;;21.80;101052.00;;;;2078830;28;20217;-58
2022/10/29 01:28:02;;;;;;;23.02;18.98;;;;;21.80;101045.00;;;;2070489;28;20226;-58
2022/10/29 01:29:22;;;;;;;24.83;19.33;;;;;21.80;101054.00;;;;2069620;28;20210;-57
2022/10/29 01:30:52;;;;;;;23.30;19.45;;;;;21.80;101055.00;;;;2075798;28;20221;-56
2022/10/29 01:32:00;;;;;;;24.45;19.52;;;;;21.80;101041.00;;;;2074747;28;20217;-58
2022/10/29 01:33:10;;;;;;;24.60;20.15;;;;;21.80;101037.00;;;;2077589;28;20300;-57
2022/10/29 01:34:38;;;;;;;22.67;18.55;;;;;21.80;101032.00;;;;2078025;28;20201;-58
2022/10/29 01:35:56;;;;;;;23.35;18.83;;;;;21.80;101022.00;;;;2077836;28;20221;-58
2022/10/29 01:36:57;;;;;;;20.95;18.63;;;;;21.80;101032.00;;;;2074207;28;20670;-58
2022/10/29 01:38:10;;;;;;;22.58;18.17;;;;;21.80;101025.00;;;;2078124;28;20705;-58
2022/10/29 01:39:23;;;;;;;22.52;18.83;;;;;21.80;101022.00;;;;2078532;28;20218;-57
2022/10/29 01:40:45;;;;;;;20.73;18.52;;;;;21.80;101027.00;;;;2078033;28;20208;-58
2022/10/29 01:42:06;;;;;;;22.58;19.13;;;;;21.80;101027.00;;;;2076792;28;20725;-56
2022/10/29 01:43:19;;;;;;;23.15;19.65;;;;;21.80;101030.00;;;;2069577;28;20222;-57
2022/10/29 01:44:22;;;;;;;22.63;18.77;;;;;21.80;101013.00;;;;2069340;28;20297;-58
2022/10/29 01:45:25;;;;;;;20.88;18.05;;;;;21.80;101025.00;;;;2076894;28;20218;-58
2022/10/29 01:47:14;;;;;;;24.42;19.20;;;;;21.80;101026.00;;;;2068724;28;20238;-57
2022/10/29 01:48:17;;;;;;;21.00;18.30;;;;;21.80;101017.00;;;;2075937;28;20218;-58
2022/10/29 01:49:21;;;;;;;21.38;18.27;;;;;21.80;101014.00;;;;2077803;28;20224;-57
2022/10/29 01:50:22;;;;;;;26.92;18.00;;;;;21.80;101004.00;;;;2077373;28;20245;-58
2022/10/29 01:51:25;;;;;;;23.77;18.20;;;;;21.80;101012.00;;;;2061612;28;20230;-57
2022/10/29 01:52:26;;;;;;;20.67;17.98;;;;;21.80;101006.00;;;;2068559;28;20222;-58
2022/10/29 01:53:26;;;;;;;21.70;18.73;;;;;21.80;101026.00;;;;2069936;28;20789;-57
2022/10/29 01:54:27;;;;;;;22.20;16.70;;;;;21.80;101000.00;;;;2061537;28;20229;-58
2022/10/29 01:55:28;;;;;;;18.53;16.53;;;;;21.80;100998.00;;;;2066956;28;21016;-57
2022/10/29 01:56:29;;;;;;;23.80;18.30;;;;;21.80;101003.00;;;;2077837;28;20297;-56
2022/10/29 01:57:31;;;;;;;23.63;17.53;;;;;21.80;101005.00;;;;2077807;28;20243;-58
2022/10/29 01:58:32;;;;;;;20.00;16.63;;;;;21.80;101010.00;;;;2076630;28;20296;-56
2022/10/29 01:59:32;;;;;;;20.60;16.90;;;;;21.80;101018.00;;;;2069777;28;20392;-55
2022/10/29 02:01:00;;;;;;;18.47;16.10;;;;;21.80;101026.00;;;;2069564;28;21387;-57
2022/10/29 02:02:20;;;;;;;19.55;16.15;;;;;21.80;101023.00;;;;2071223;28;20692;-57
2022/10/29 02:03:44;;;;;;;22.60;17.80;;;;;21.80;101024.00;;;;2071926;28;20633;-58
2022/10/29 02:04:47;;;;;;;18.52;16.20;;;;;21.80;101021.00;;;;2077714;28;20214;-58
2022/10/29 02:06:28;;;;;;;19.40;17.08;;;;;21.80;101012.00;;;;2077826;28;20238;-57
2022/10/29 02:08:12;;;;;;;18.98;16.70;;;;;21.80;101011.00;;;;2077345;28;20303;-58
2022/10/29 02:09:15;;;;;;;21.60;17.30;;;;;21.70;101003.00;;;;2070298;28;20219;-57
2022/10/29 02:10:38;;;;;;;19.20;17.08;;;;;21.70;101012.00;;;;2077868;28;20268;-58
2022/10/29 02:11:50;;;;;;;19.50;17.02;;;;;21.80;101005.00;;;;2077337;28;20267;-57
2022/10/29 02:12:51;;;;;;;21.77;16.45;;;;;21.80;101001.00;;;;2077734;28;20283;-58
2022/10/29 02:13:58;;;;;;;20.45;16.73;;;;;21.70;100988.00;;;;2077604;28;20253;-56
2022/10/29 02:15:13;;;;;;;17.38;15.60;;;;;21.70;100995.00;;;;2070360;28;20264;-58
2022/10/29 02:16:14;;;;;;;18.33;15.90;;;;;21.70;100979.00;;;;2077733;28;20681;-57
2022/10/29 02:17:14;;;;;;;14.83;13.20;;;;;21.80;101007.00;;;;2077852;28;20225;-57
2022/10/29 02:18:15;;;;;;;19.10;15.70;;;;;21.70;101003.00;;;;2077270;28;20244;-58
2022/10/29 02:19:15;;;;;;;19.37;14.77;;;;;21.70;100995.00;;;;2078047;28;20221;-56
2022/10/29 02:20:15;;;;;;;16.53;14.73;;;;;21.70;100988.00;;;;2074753;28;20276;-57
2022/10/29 02:21:16;;;;;;;16.87;14.70;;;;;21.70;100987.00;;;;2070138;28;20233;-56
2022/10/29 02:22:17;;;;;;;19.80;14.93;;;;;21.70;100980.00;;;;2068783;28;20745;-58
2022/10/29 02:23:17;;;;;;;17.50;15.53;;;;;21.70;100985.00;;;;2069707;28;20889;-58
2022/10/29 02:24:17;;;;;;;19.13;15.27;;;;;21.70;100993.00;;;;2069373;28;20312;-57
2022/10/29 02:25:18;;;;;;;19.43;16.23;;;;;21.70;100985.00;;;;2069489;28;20301;-56
2022/10/29 02:26:18;;;;;;;18.43;15.30;;;;;21.80;100990.00;;;;2069733;28;20757;-58
2022/10/29 02:27:18;;;;;;;17.40;15.63;;;;;21.80;100982.00;;;;2069710;28;20745;-56
2022/10/29 02:28:19;;;;;;;16.70;15.00;;;;;21.30;100986.00;;;;2070539;28;20663;-57
2022/10/29 02:29:19;;;;;;;18.13;14.93;;;;;21.70;100986.00;;;;2070325;28;20210;-58
2022/10/29 02:30:19;;;;;;;16.77;14.17;;;;;21.70;100989.00;;;;2070168;28;20237;-58
2022/10/29 02:31:20;;;;;;;17.07;15.00;;;;;21.70;100987.00;;;;2070183;28;20216;-57
2022/10/29 02:32:20;;;;;;;16.70;14.10;;;;;21.80;100988.00;;;;2067610;28;20210;-57
2022/10/29 02:33:20;;;;;;;18.13;14.20;;;;;21.70;100984.00;;;;2071711;28;20344;-56
2022/10/29 02:34:21;;;;;;;16.73;14.93;;;;;21.70;100985.00;;;;2075771;28;20249;-57
2022/10/29 02:35:21;;;;;;;16.10;13.87;;;;;21.70;100981.00;;;;2073890;28;20214;-59
2022/10/29 02:36:21;;;;;;;16.20;14.50;;;;;21.70;100986.00;;;;2078518;28;20238;-58
2022/10/29 02:37:22;;;;;;;18.23;14.30;;;;;21.70;100987.00;;;;2078538;28;20213;-57
2022/10/29 02:38:22;;;;;;;15.67;14.07;;;;;21.70;100979.00;;;;2077279;28;20647;-57
2022/10/29 02:39:22;;;;;;;16.90;13.80;;;;;21.70;100975.00;;;;2078607;28;20564;-58
2022/10/29 02:40:23;;;;;;;16.40;14.00;;;;;21.70;100980.00;;;;2078277;28;20310;-57
2022/10/29 02:41:23;;;;;;;15.83;14.13;;;;;21.70;100982.00;;;;2078212;28;20287;-56
2022/10/29 02:42:23;;;;;;;16.33;13.93;;;;;21.70;100975.00;;;;2077549;28;20220;-57
2022/10/29 02:43:24;;;;;;;16.03;14.10;;;;;21.70;100975.00;;;;2077946;28;20217;-58
2022/10/29 02:44:24;;;;;;;19.47;15.03;;;;;21.70;100969.00;;;;2078271;28;20217;-58
2022/10/29 02:45:24;;;;;;;15.63;13.57;;;;;21.70;100972.00;;;;2077597;28;20235;-57
2022/10/29 02:46:25;;;;;;;16.57;14.20;;;;;21.70;100974.00;;;;2078295;28;20221;-57
2022/10/29 02:47:26;;;;;;;15.20;13.17;;;;;21.70;100972.00;;;;2078533;28;20253;-57
2022/10/29 02:48:26;;;;;;;16.48;14.35;;;;;21.70;100970.00;;;;2078314;28;20693;-58
2022/10/29 02:49:27;;;;;;;14.30;12.80;;;;;21.70;100965.00;;;;2079582;28;20222;-58
2022/10/29 02:50:27;;;;;;;16.57;13.67;;;;;21.70;100969.00;;;;2079817;28;20221;-58
2022/10/29 02:51:27;;;;;;;16.60;13.50;;;;;21.70;100872.00;;;;2080131;28;20221;-58
2022/10/29 02:52:28;;;;;;;17.30;13.33;;;;;21.70;100964.00;;;;2079135;28;20302;-57
2022/10/29 02:53:28;;;;;;;16.57;13.30;;;;;21.70;100961.00;;;;2079984;28;20314;-58
2022/10/29 02:54:28;;;;;;;15.30;13.27;;;;;21.70;100964.00;;;;2079998;28;20225;-58
2022/10/29 02:55:28;;;;;;;15.27;12.73;;;;;21.70;100967.00;;;;2079665;28;20276;-58
2022/10/29 02:56:29;;;;;;;13.93;12.43;;;;;21.70;100956.00;;;;2079961;28;20213;-56
2022/10/29 02:57:29;;;;;;;16.67;12.57;;;;;21.70;100949.00;;;;2079757;28;20205;-57
2022/10/29 02:58:29;;;;;;;14.17;12.67;;;;;21.70;100960.00;;;;2079501;28;20311;-57
2022/10/29 02:59:30;;;;;;;15.00;12.70;;;;;21.70;100967.00;;;;2079852;28;20328;-56
2022/10/29 03:00:30;;;;;;;15.07;12.03;;;;;21.70;100968.00;;;;2079910;28;20213;-56
2022/10/29 03:01:30;;;;;;;14.07;12.57;;;;;21.70;100965.00;;;;2079899;28;20248;-56
2022/10/29 03:02:31;;;;;;;14.60;13.10;;;;;21.60;100954.00;;;;2079308;28;20234;-58
2022/10/29 03:03:31;;;;;;;15.63;12.47;;;;;21.60;100956.00;;;;2079120;28;20236;-58
2022/10/29 03:04:31;;;;;;;16.80;12.00;;;;;21.70;100956.00;;;;2079819;28;20213;-57
2022/10/29 03:05:32;;;;;;;14.87;12.20;;;;;21.70;100952.00;;;;2079038;28;20228;-56
2022/10/29 03:06:32;;;;;;;13.73;12.10;;;;;21.70;100949.00;;;;2079316;28;20227;-57
2022/10/29 03:07:36;;;;;;;13.90;11.90;;;;;21.60;100951.00;;;;2079911;28;20224;-56
2022/10/29 03:08:36;;;;;;;13.43;11.45;;;;;21.60;100950.00;;;;2079785;28;20229;-57
2022/10/29 03:09:37;;;;;;;13.57;10.97;;;;;21.60;100958.00;;;;2079384;28;20633;-57
2022/10/29 03:10:37;;;;;;;13.80;11.03;;;;;21.60;100957.00;;;;2071798;28;20699;-57
2022/10/29 03:11:37;;;;;;;13.57;11.80;;;;;21.60;100957.00;;;;2071637;28;20225;-58
2022/10/29 03:12:38;;;;;;;13.93;11.07;;;;;21.70;100962.00;;;;2077020;28;20267;-57
2022/10/29 03:13:38;;;;;;;13.67;10.50;;;;;21.60;100964.00;;;;2079470;28;20217;-58
2022/10/29 03:14:38;;;;;;;13.10;10.90;;;;;21.70;100963.00;;;;2074959;28;20225;-57
2022/10/29 03:15:42;;;;;;;13.30;10.93;;;;;21.60;100958.00;;;;2071964;28;20214;-58
2022/10/29 03:16:42;;;;;;;13.18;10.55;;;;;21.70;100966.00;;;;2071030;28;20211;-56
2022/10/29 03:17:42;;;;;;;12.90;11.40;;;;;21.70;100963.00;;;;2070716;28;20222;-56
2022/10/29 03:18:43;;;;;;;12.60;10.63;;;;;21.60;100967.00;;;;2071723;28;20217;-56
2022/10/29 03:19:43;;;;;;;12.73;11.07;;;;;21.60;100960.00;;;;2072974;28;20205;-56
2022/10/29 03:20:44;;;;;;;12.20;10.90;;;;;21.70;100965.00;;;;2071624;28;20225;-56
2022/10/29 03:21:44;;;;;;;14.17;11.50;;;;;21.70;100967.00;;;;2071516;28;20218;-58
2022/10/29 03:22:44;;;;;;;14.67;11.10;;;;;21.70;100968.00;;;;2069900;28;20221;-58
2022/10/29 03:23:45;;;;;;;12.40;10.60;;;;;21.70;100961.00;;;;2071448;28;20217;-58
2022/10/29 03:24:45;;;;;;;12.50;10.70;;;;;21.60;100964.00;;;;2071353;28;20296;-57
2022/10/29 03:25:51;;;;;;;14.23;9.87;;;;;21.70;100968.00;;;;2071628;28;20210;-56
2022/10/29 03:26:51;;;;;;;14.80;10.43;;;;;21.60;100965.00;;;;2076450;28;20213;-58
2022/10/29 03:27:51;;;;;;;12.13;10.83;;;;;21.60;100963.00;;;;2079772;28;20217;-58
2022/10/29 03:28:52;;;;;;;13.73;10.00;;;;;21.60;100963.00;;;;2079917;28;20205;-57
2022/10/29 03:29:52;;;;;;;14.60;10.57;;;;;21.70;100961.00;;;;2078633;28;20295;-56
2022/10/29 03:30:52;;;;;;;13.30;10.33;;;;;21.60;100961.00;;;;2078818;28;20213;-58
2022/10/29 03:31:53;;;;;;;11.40;10.00;;;;;21.60;100954.00;;;;2077926;28;20197;-58
2022/10/29 03:32:53;;;;;;;14.30;10.97;;;;;21.60;100959.00;;;;2079201;28;20800;-57
2022/10/29 03:33:53;;;;;;;12.07;9.50;;;;;21.60;100948.00;;;;2079439;28;20209;-57
2022/10/29 03:34:54;;;;;;;11.40;10.30;;;;;21.60;100952.00;;;;2079349;28;20272;-58
2022/10/29 03:35:58;;;;;;;12.10;10.90;;;;;21.60;100958.00;;;;2078495;28;20674;-58
2022/10/29 03:36:58;;;;;;;11.57;10.30;;;;;21.60;100962.00;;;;2079907;28;20213;-56
2022/10/29 03:37:58;;;;;;;13.10;10.53;;;;;21.60;100763.00;;;;2079684;28;20310;-58
2022/10/29 03:38:59;;;;;;;11.40;10.27;;;;;21.60;100956.00;;;;2079833;28;20280;-58
2022/10/29 03:39:59;;;;;;;13.37;10.57;;;;;21.60;100947.00;;;;2079855;28;20557;-55
2022/10/29 03:40:59;;;;;;;13.00;10.00;;;;;21.60;100947.00;;;;2079653;28;20555;-57
2022/10/29 03:42:00;;;;;;;11.07;9.63;;;;;21.60;100947.00;;;;2070365;28;20210;-57
2022/10/29 03:43:00;;;;;;;13.17;10.10;;;;;21.60;100941.00;;;;2070889;28;20206;-56
2022/10/29 03:44:00;;;;;;;12.07;10.10;;;;;21.60;100948.00;;;;2071481;28;20260;-56
2022/10/29 03:45:01;;;;;;;10.63;9.50;;;;;21.70;100946.00;;;;2071267;28;20210;-57
2022/10/29 03:46:01;;;;;;;11.60;10.20;;;;;21.70;100947.00;;;;2071052;28;20213;-57
2022/10/29 03:47:01;;;;;;;11.67;9.43;;;;;21.60;100951.00;;;;2070693;28;20210;-57
2022/10/29 03:48:03;;;;;;;10.67;9.57;;;;;21.60;100950.00;;;;2071578;28;20210;-57
2022/10/29 03:49:03;;;;;;;11.52;9.48;;;;;21.60;100948.00;;;;2071210;28;20583;-57
2022/10/29 03:50:04;;;;;;;15.50;10.53;;;;;21.60;100953.00;;;;2070878;28;20256;-57
2022/10/29 03:51:05;;;;;;;11.90;10.00;;;;;21.60;100951.00;;;;2075856;28;20217;-56
2022/10/29 03:52:05;;;;;;;10.70;8.83;;;;;21.60;100949.00;;;;2078210;28;20308;-56
2022/10/29 03:53:05;;;;;;;10.30;8.97;;;;;21.60;100951.00;;;;2078377;28;20292;-56
2022/10/29 03:54:06;;;;;;;14.30;10.17;;;;;21.60;100947.00;;;;2079076;28;20217;-58
2022/10/29 03:55:06;;;;;;;10.10;9.10;;;;;21.60;100952.00;;;;2079550;28;20267;-57
2022/10/29 03:56:08;;;;;;;11.17;9.50;;;;;21.60;100959.00;;;;2079635;28;20221;-57
2022/10/29 03:57:08;;;;;;;9.30;8.35;;;;;21.60;100954.00;;;;2078791;28;20256;-57
2022/10/29 03:58:08;;;;;;;10.70;9.60;;;;;21.50;100952.00;;;;2078912;28;20214;-58
2022/10/29 03:59:09;;;;;;;11.10;8.33;;;;;21.60;100952.00;;;;2078661;28;20268;-57
2022/10/29 04:00:09;;;;;;;9.70;8.70;;;;;21.60;100957.00;;;;2079118;28;20221;-57
2022/10/29 04:01:09;;;;;;;9.97;8.90;;;;;21.60;100956.00;;;;2079606;28;20232;-56
2022/10/29 04:02:11;;;;;;;11.20;9.33;;;;;21.60;100957.00;;;;2078632;28;20209;-58
2022/10/29 04:03:11;;;;;;;9.93;8.93;;;;;21.60;100951.00;;;;2079307;28;21215;-56
2022/10/29 04:04:12;;;;;;;11.10;8.83;;;;;21.60;100950.00;;;;2079099;28;20221;-56
2022/10/29 04:05:12;;;;;;;9.23;8.30;;;;;21.60;100953.00;;;;2079317;28;20301;-58
2022/10/29 04:06:13;;;;;;;13.20;9.00;;;;;21.60;100951.00;;;;2079270;28;20221;-57
2022/10/29 04:07:14;;;;;;;10.50;9.20;;;;;21.60;100946.00;;;;2079264;28;20214;-56
2022/10/29 04:08:14;;;;;;;10.13;9.00;;;;;21.60;100959.00;;;;2079636;28;20214;-58
2022/10/29 04:09:15;;;;;;;10.13;8.70;;;;;21.60;100949.00;;;;2079370;28;20214;-57
2022/10/29 04:10:15;;;;;;;10.20;8.53;;;;;21.60;100940.00;;;;2079514;28;20272;-57
2022/10/29 04:11:15;;;;;;;11.27;8.33;;;;;21.60;100954.00;;;;2079362;28;20218;-56
2022/10/29 04:12:16;;;;;;;9.50;8.10;;;;;21.30;100946.00;;;;2078677;28;20229;-57
2022/10/29 04:13:16;;;;;;;9.80;8.33;;;;;21.60;100941.00;;;;2079490;28;20209;-57
2022/10/29 04:14:17;;;;;;;12.03;8.80;;;;;21.50;100936.00;;;;2078476;28;20259;-58
2022/10/29 04:15:17;;;;;;;10.43;8.87;;;;;21.60;100928.00;;;;2073249;28;20209;-57
2022/10/29 04:16:17;;;;;;;10.27;8.67;;;;;21.60;100924.00;;;;2070925;28;20692;-57
2022/10/29 04:17:18;;;;;;;10.60;8.60;;;;;21.60;100925.00;;;;2071432;28;20238;-58
2022/10/29 04:18:18;;;;;;;10.13;8.57;;;;;21.60;100912.00;;;;2071391;28;20293;-56
2022/10/29 04:19:18;;;;;;;11.37;7.97;;;;;21.60;100901.00;;;;2071642;28;20222;-56
2022/10/29 04:20:19;;;;;;;10.17;9.07;;;;;21.60;100918.00;;;;2071261;28;20236;-57
2022/10/29 04:21:19;;;;;;;10.17;9.10;;;;;21.60;100916.00;;;;2071248;28;20214;-58
2022/10/29 04:22:19;;;;;;;11.20;8.67;;;;;21.60;100920.00;;;;2068406;28;20293;-58
2022/10/29 04:23:20;;;;;;;10.00;7.83;;;;;21.60;100920.00;;;;2070818;28;20206;-57
2022/10/29 04:24:20;;;;;;;12.00;9.27;;;;;21.60;100921.00;;;;2071142;28;20206;-57
2022/10/29 04:25:20;;;;;;;9.00;7.97;;;;;21.50;100926.00;;;;2071054;28;20583;-57
2022/10/29 04:26:20;;;;;;;11.13;8.60;;;;;21.50;100930.00;;;;2071284;28;20584;-56
2022/10/29 04:27:21;;;;;;;12.00;8.87;;;;;21.60;100923.00;;;;2071145;28;20709;-58
2022/10/29 04:28:21;;;;;;;9.00;7.60;;;;;21.60;100951.00;;;;2075041;28;20553;-56
2022/10/29 04:29:21;;;;;;;11.40;8.40;;;;;21.50;100921.00;;;;2079339;28;20690;-57
2022/10/29 04:30:22;;;;;;;11.77;7.90;;;;;21.60;100918.00;;;;2079275;28;20218;-58
2022/10/29 04:31:23;;;;;;;9.77;7.60;;;;;21.60;100915.00;;;;2079063;28;20210;-56
2022/10/29 04:32:23;;;;;;;8.83;7.93;;;;;21.60;100917.00;;;;2078501;28;20920;-57
2022/10/29 04:33:23;;;;;;;11.43;9.40;;;;;21.60;100944.00;;;;2078337;28;20690;-57
2022/10/29 04:34:24;;;;;;;10.40;8.03;;;;;21.50;100919.00;;;;2079512;28;20611;-57
2022/10/29 04:35:27;;;;;;;9.33;7.20;;;;;21.50;100921.00;;;;2079321;28;20677;-56
2022/10/29 04:36:28;;;;;;;11.15;8.48;;;;;21.50;100954.00;;;;2077810;28;20315;-58
2022/10/29 04:37:28;;;;;;;10.30;8.20;;;;;21.50;100930.00;;;;2078555;28;20664;-58
2022/10/29 04:38:29;;;;;;;9.13;7.20;;;;;21.60;100926.00;;;;2079166;28;20210;-57
2022/10/29 04:39:29;;;;;;;10.43;8.03;;;;;21.50;100923.00;;;;2078995;28;20264;-56
2022/10/29 04:40:29;;;;;;;11.90;8.30;;;;;21.60;100939.00;;;;2079214;28;20248;-57
2022/10/29 04:41:30;;;;;;;12.83;8.13;;;;;21.50;100934.00;;;;2079256;28;20210;-56
2022/10/29 04:42:36;;;;;;;8.30;6.90;;;;;21.50;100940.00;;;;2078036;28;20221;-56
2022/10/29 04:43:36;;;;;;;9.85;7.50;;;;;21.60;100943.00;;;;2079173;28;20213;-57
2022/10/29 04:44:36;;;;;;;8.17;6.77;;;;;21.50;100937.00;;;;2079123;28;20567;-57
2022/10/29 04:45:37;;;;;;;9.47;7.43;;;;;21.60;100927.00;;;;2078709;28;20210;-58
2022/10/29 04:46:37;;;;;;;8.43;7.53;;;;;21.50;100929.00;;;;2078574;28;20634;-58
2022/10/29 04:47:37;;;;;;;9.53;7.97;;;;;21.50;100929.00;;;;2079165;28;20710;-57
2022/10/29 04:48:38;;;;;;;10.57;7.43;;;;;21.50;100922.00;;;;2079316;28;20658;-57
2022/10/29 04:49:38;;;;;;;8.70;6.83;;;;;21.50;100916.00;;;;2079447;28;20690;-56
2022/10/29 04:50:38;;;;;;;8.90;7.73;;;;;21.50;100917.00;;;;2078954;28;20241;-57
2022/10/29 04:51:39;;;;;;;11.17;8.10;;;;;21.50;100911.00;;;;2079472;28;20221;-58
2022/10/29 04:52:39;;;;;;;9.40;7.97;;;;;21.50;100907.00;;;;2078192;28;20220;-58
2022/10/29 04:53:39;;;;;;;10.40;7.60;;;;;21.50;100902.00;;;;2070596;28;20969;-56
2022/10/29 04:54:40;;;;;;;9.03;7.70;;;;;21.50;100908.00;;;;2071163;28;20211;-57
2022/10/29 04:55:40;;;;;;;10.67;7.70;;;;;21.50;100901.00;;;;2070810;28;20214;-56
2022/10/29 04:56:40;;;;;;;8.50;7.60;;;;;21.50;100907.00;;;;2071076;28;20240;-56
2022/10/29 04:57:41;;;;;;;9.53;7.93;;;;;21.50;100900.00;;;;2070939;28;20202;-58
2022/10/29 04:58:41;;;;;;;8.97;7.83;;;;;21.50;100906.00;;;;2070650;28;20257;-57
2022/10/29 04:59:41;;;;;;;8.13;7.27;;;;;21.50;100899.00;;;;2076481;28;20206;-58
2022/10/29 05:00:42;;;;;;;8.27;7.47;;;;;21.50;100905.00;;;;2077854;28;20213;-57
2022/10/29 05:01:42;;;;;;;7.93;6.80;;;;;21.50;100896.00;;;;2078432;28;20255;-57
2022/10/29 05:02:47;;;;;;;11.40;8.17;;;;;21.50;100903.00;;;;2077937;28;20201;-57
2022/10/29 05:03:47;;;;;;;7.60;6.90;;;;;21.50;100890.00;;;;2077456;28;20835;-57
2022/10/29 05:04:48;;;;;;;7.90;6.80;;;;;21.50;100898.00;;;;2078616;28;20221;-57
2022/10/29 05:05:48;;;;;;;12.13;7.20;;;;;21.50;100888.00;;;;2076844;28;20256;-56